createdAt,value
2022-12-23T00:00:01.479Z,3.78
2022-12-23T00:02:33.224Z,2.28
2022-12-23T00:05:07.282Z,2.70
2022-12-23T00:07:40.804Z,3.40
2022-12-23T00:10:10.511Z,2.67
2022-12-23T00:12:56.127Z,5.63
2022-12-23T00:15:24.664Z,2.53
2022-12-23T00:17:54.526Z,2.75
2022-12-23T00:20:23.321Z,3.92
2022-12-23T00:23:08.087Z,2.17
2022-12-23T00:25:45.910Z,1.60
2022-12-23T00:28:16.683Z,2.35
2022-12-23T00:30:50.618Z,1.63
2022-12-23T00:33:20.673Z,1.92
2022-12-23T00:35:50.317Z,1.92
2022-12-23T00:38:43.827Z,2.20
2022-12-23T00:41:32.551Z,2.40
2022-12-23T00:44:01.775Z,1.70
2022-12-23T00:46:31.011Z,2.53
2022-12-23T00:49:16.528Z,1.30
2022-12-23T00:51:45.430Z,3.33
2022-12-23T00:54:16.351Z,3.28
2022-12-23T00:56:44.843Z,0.75
2022-12-23T00:59:13.374Z,1.13
2022-12-23T01:01:59.636Z,0.20
2022-12-23T01:04:45.964Z,1.33
2022-12-23T01:07:14.524Z,0.60
2022-12-23T01:09:44.624Z,0.98
2022-12-23T01:12:12.949Z,1.00
2022-12-23T01:14:41.765Z,1.02
2022-12-23T01:17:11.804Z,1.25
2022-12-23T01:19:40.803Z,1.15
2022-12-23T01:22:09.270Z,2.05
2022-12-23T01:24:37.961Z,0.47
2022-12-23T01:27:07.892Z,1.85
2022-12-23T01:29:36.356Z,1.75
2022-12-23T01:32:05.015Z,0.20
2022-12-23T01:34:37.193Z,0.40
2022-12-23T01:37:06.653Z,1.70
2022-12-23T01:39:35.394Z,0.52
2022-12-23T01:42:21.062Z,1.40
2022-12-23T01:44:57.482Z,0.52
2022-12-23T01:47:33.584Z,1.00
2022-12-23T01:50:07.288Z,1.48
2022-12-23T01:52:40.566Z,0.20
2022-12-23T01:55:11.090Z,1.15
2022-12-23T01:57:42.381Z,0.32
2022-12-23T02:00:31.284Z,0.40
2022-12-23T02:03:16.848Z,0.90
2022-12-23T02:05:48.974Z,0.30
2022-12-23T02:08:36.228Z,1.95
2022-12-23T02:11:28.696Z,0.40
2022-12-23T02:14:31.678Z,1.20
2022-12-23T02:17:10.512Z,1.23
2022-12-23T02:20:28.578Z,0.45
2022-12-23T02:23:25.647Z,0.20
2022-12-23T02:26:11.847Z,0.70
2022-12-23T02:29:05.639Z,0.30
2022-12-23T02:31:45.288Z,0.40
2022-12-23T02:34:20.119Z,0.98
2022-12-23T02:36:58.406Z,0.35
2022-12-23T02:39:37.798Z,0.17
2022-12-23T02:42:13.188Z,0.43
2022-12-23T02:44:49.030Z,0.38
2022-12-23T02:47:25.391Z,0.38
2022-12-23T02:50:00.505Z,0.35
2022-12-23T02:52:32.129Z,0.47
2022-12-23T02:57:36.461Z,0.43
2022-12-23T03:00:06.345Z,0.20
2022-12-23T03:02:40.910Z,0.38
2022-12-23T03:05:27.176Z,0.10
2022-12-23T03:08:00.371Z,0.30
2022-12-23T03:10:41.409Z,0.10
2022-12-23T03:13:18.639Z,0.43
2022-12-23T03:15:55.884Z,2.10
2022-12-23T03:18:36.433Z,0.17
2022-12-23T03:21:13.105Z,0.57
2022-12-23T03:23:55.659Z,0.98
2022-12-23T03:26:31.006Z,0.65
2022-12-23T03:29:05.954Z,0.47
2022-12-23T03:31:38.175Z,0.60
2022-12-23T03:34:16.460Z,0.40
2022-12-23T03:37:03.198Z,0.08
2022-12-23T03:39:36.517Z,0.20
2022-12-23T03:42:12.546Z,1.52
2022-12-23T03:45:10.771Z,0.47
2022-12-23T03:47:39.179Z,0.15
2022-12-23T03:50:15.135Z,0.20
2022-12-23T03:52:50.920Z,1.85
2022-12-23T03:55:24.144Z,0.45
2022-12-23T03:58:03.243Z,0.40
2022-12-23T04:00:40.593Z,0.20
2022-12-23T04:03:23.428Z,0.90
2022-12-23T04:05:59.474Z,1.75
2022-12-23T04:08:34.068Z,0.55
2022-12-23T04:11:05.240Z,0.30
2022-12-23T04:13:35.174Z,0.43
2022-12-23T04:16:11.482Z,0.30
2022-12-23T04:18:40.791Z,1.00
2022-12-23T04:21:11.787Z,0.90
2022-12-23T04:23:40.640Z,0.52
2022-12-23T04:26:10.106Z,0.73
2022-12-23T04:28:39.702Z,0.30
2022-12-23T04:31:08.826Z,0.95
2022-12-23T04:33:41.141Z,0.63
2022-12-23T04:36:11.913Z,0.57
2022-12-23T04:38:40.462Z,0.47
2022-12-23T04:41:13.142Z,0.68
2022-12-23T04:43:49.308Z,0.17
2022-12-23T04:46:22.073Z,1.40
2022-12-23T04:48:51.899Z,0.10
2022-12-23T04:51:23.601Z,0.20
2022-12-23T04:56:21.540Z,0.45
2022-12-23T04:58:51.363Z,1.83
2022-12-23T05:01:34.256Z,0.40
2022-12-23T05:04:07.271Z,0.32
2022-12-23T05:06:38.393Z,0.65
2022-12-23T05:09:18.515Z,1.27
2022-12-23T05:11:58.791Z,0.50
2022-12-23T05:14:29.942Z,0.90
2022-12-23T05:17:06.973Z,1.10
2022-12-23T05:19:50.266Z,0.70
2022-12-23T05:22:22.442Z,1.70
2022-12-23T05:24:52.466Z,0.73
2022-12-23T05:27:22.486Z,0.90
2022-12-23T05:29:56.811Z,1.08
2022-12-23T05:32:25.928Z,1.17
2022-12-23T05:34:57.672Z,1.90
2022-12-23T05:39:58.176Z,0.73
2022-12-23T05:42:27.631Z,1.70
2022-12-23T05:44:59.958Z,0.98
2022-12-23T05:47:29.720Z,2.25
2022-12-23T05:49:58.958Z,1.77
2022-12-23T05:52:30.498Z,1.33
2022-12-23T05:55:00.968Z,1.48
2022-12-23T05:57:29.497Z,2.25
2022-12-23T05:59:59.245Z,3.35
2022-12-23T06:02:29.502Z,0.88
2022-12-23T06:05:00.965Z,0.60
2022-12-23T06:07:41.866Z,1.13
2022-12-23T06:10:13.224Z,1.50
2022-12-23T06:12:41.752Z,1.90
2022-12-23T06:15:12.206Z,1.17
2022-12-23T06:17:41.777Z,1.25
2022-12-23T06:20:17.900Z,1.42
2022-12-23T06:22:50.190Z,2.67
2022-12-23T06:25:23.361Z,1.42
2022-12-23T06:27:52.302Z,0.80
2022-12-23T06:30:29.303Z,1.02
2022-12-23T06:32:58.550Z,1.50
2022-12-23T06:35:28.403Z,1.38
2022-12-23T06:37:59.377Z,1.65
2022-12-23T06:40:29.469Z,2.97
2022-12-23T06:42:59.559Z,2.20
2022-12-23T06:45:28.729Z,1.65
2022-12-23T06:47:57.312Z,2.92
2022-12-23T06:50:26.248Z,3.15
2022-12-23T06:52:57.010Z,2.85
2022-12-23T06:55:28.254Z,2.30
2022-12-23T06:57:57.743Z,3.58
2022-12-23T07:00:26.539Z,1.13
2022-12-23T07:03:02.933Z,2.35
2022-12-23T07:05:37.047Z,1.15
2022-12-23T07:08:06.698Z,1.90
2022-12-23T07:10:39.214Z,1.10
2022-12-23T07:13:08.812Z,0.80
2022-12-23T07:15:39.128Z,1.92
2022-12-23T07:18:09.151Z,1.90
2022-12-23T07:20:37.859Z,1.98
2022-12-23T07:23:07.619Z,2.97
2022-12-23T07:25:40.842Z,2.58
2022-12-23T07:28:10.302Z,3.15
2022-12-23T07:30:38.709Z,1.23
2022-12-23T07:33:07.070Z,3.70
2022-12-23T07:35:35.615Z,2.00
2022-12-23T07:38:05.197Z,1.23
2022-12-23T07:40:33.675Z,1.98
2022-12-23T07:43:04.909Z,3.72
2022-12-23T07:45:33.955Z,1.35
2022-12-23T07:48:03.839Z,1.15
2022-12-23T07:50:32.824Z,2.65
2022-12-23T07:53:01.568Z,4.00
2022-12-23T07:55:30.550Z,4.40
2022-12-23T07:58:00.174Z,2.30
2022-12-23T08:00:30.610Z,3.03
2022-12-23T08:03:00.552Z,1.70
2022-12-23T08:05:32.250Z,1.85
2022-12-23T08:08:01.641Z,2.53
2022-12-23T08:10:30.565Z,1.40
2022-12-23T08:13:03.197Z,1.58
2022-12-23T08:15:33.935Z,2.00
2022-12-23T08:18:03.370Z,1.08
2022-12-23T08:20:31.913Z,3.15
2022-12-23T08:23:00.551Z,1.70
2022-12-23T08:25:29.640Z,2.53
2022-12-23T08:27:57.924Z,2.30
2022-12-23T08:30:26.627Z,1.77
2022-12-23T08:32:57.219Z,1.50
2022-12-23T08:35:26.555Z,2.03
2022-12-23T08:37:56.744Z,0.90
2022-12-23T08:40:26.519Z,2.60
2022-12-23T08:42:55.126Z,0.50
2022-12-23T08:45:24.251Z,1.95
2022-12-23T08:47:53.239Z,1.13
2022-12-23T08:50:23.408Z,1.98
2022-12-23T08:52:51.854Z,2.20
2022-12-23T08:55:21.037Z,2.15
2022-12-23T08:57:49.641Z,4.65
2022-12-23T09:00:18.354Z,2.92
2022-12-23T09:02:46.981Z,1.25
2022-12-23T09:05:15.381Z,1.42
2022-12-23T09:07:45.075Z,3.13
2022-12-23T09:10:13.371Z,1.40
2022-12-23T09:12:41.623Z,1.50
2022-12-23T09:15:10.780Z,2.38
2022-12-23T09:17:39.082Z,1.77
2022-12-23T09:20:08.709Z,3.00
2022-12-23T09:22:36.992Z,1.65
2022-12-23T09:25:07.342Z,3.72
2022-12-23T09:27:35.637Z,3.53
2022-12-23T09:30:03.935Z,1.95
2022-12-23T09:32:33.686Z,1.85
2022-12-23T09:35:01.986Z,2.67
2022-12-23T09:37:30.200Z,1.80
2022-12-23T09:39:58.503Z,2.85
2022-12-23T09:42:38.457Z,1.58
2022-12-23T09:45:18.101Z,4.75
2022-12-23T09:47:46.954Z,2.60
2022-12-23T09:50:22.795Z,2.72
2022-12-23T09:52:57.828Z,4.95
2022-12-23T09:55:32.576Z,3.70
2022-12-23T09:58:07.622Z,4.70
2022-12-23T10:00:40.946Z,4.35
2022-12-23T10:03:22.042Z,1.60
2022-12-23T10:06:02.651Z,2.33
2022-12-23T10:08:35.570Z,1.83
2022-12-23T10:11:08.995Z,4.57
2022-12-23T10:13:42.804Z,2.42
2022-12-23T10:16:17.108Z,3.75
2022-12-23T10:18:52.934Z,2.60
2022-12-23T10:21:28.406Z,3.60
2022-12-23T10:23:56.919Z,3.63
2022-12-23T10:26:27.477Z,2.40
2022-12-23T10:29:04.407Z,2.20
2022-12-23T10:31:44.783Z,3.55
2022-12-23T10:34:20.857Z,3.35
2022-12-23T10:37:00.437Z,3.03
2022-12-23T10:39:35.465Z,2.55
2022-12-23T10:42:13.794Z,1.83
2022-12-23T10:45:12.240Z,2.15
2022-12-23T10:47:56.515Z,2.85
2022-12-23T10:50:46.261Z,3.60
2022-12-23T10:53:24.179Z,3.80
2022-12-23T10:55:52.639Z,3.75
2022-12-23T10:58:22.847Z,3.75
2022-12-23T11:00:56.110Z,4.78
2022-12-23T11:03:30.050Z,4.68
2022-12-23T11:05:59.989Z,4.20
2022-12-23T11:08:31.886Z,2.97
2022-12-23T11:11:02.613Z,4.28
2022-12-23T11:13:39.359Z,5.80
2022-12-23T11:16:30.706Z,3.55
2022-12-23T11:19:02.417Z,5.38
2022-12-23T11:24:17.991Z,3.85
2022-12-23T11:26:49.172Z,3.88
2022-12-23T11:29:25.119Z,4.25
2022-12-23T11:31:56.854Z,3.33
2022-12-23T11:37:05.205Z,3.20
2022-12-23T11:39:38.652Z,3.90
2022-12-23T11:42:13.117Z,5.50
2022-12-23T11:44:43.634Z,2.47
2022-12-23T11:47:29.618Z,2.20
2022-12-23T11:49:59.513Z,5.10
2022-12-23T11:52:30.108Z,3.78
2022-12-23T11:55:00.592Z,4.05
2022-12-23T11:57:37.882Z,2.47
2022-12-23T12:00:09.236Z,3.97
2022-12-23T12:02:44.508Z,2.95
2022-12-23T12:05:22.618Z,4.40
2022-12-23T12:07:52.331Z,4.13
2022-12-23T12:10:23.491Z,5.07
2022-12-23T12:12:57.085Z,3.60
2022-12-23T12:15:34.000Z,5.07
2022-12-23T12:18:07.852Z,2.70
2022-12-23T12:20:40.719Z,3.65
2022-12-23T12:23:15.485Z,2.60
2022-12-23T12:25:49.647Z,2.70
2022-12-23T12:28:24.778Z,2.25
2022-12-23T12:30:59.194Z,2.72
2022-12-23T12:33:36.120Z,2.55
2022-12-23T12:36:13.216Z,5.10
2022-12-23T12:38:42.502Z,2.00
2022-12-23T12:41:19.480Z,2.65
2022-12-23T12:43:53.982Z,3.92
2022-12-23T12:46:30.319Z,2.47
2022-12-23T12:49:05.283Z,4.00
2022-12-23T12:51:39.478Z,2.53
2022-12-23T12:54:17.170Z,3.22
2022-12-23T12:56:50.102Z,3.83
2022-12-23T12:59:20.203Z,2.63
2022-12-23T13:01:58.247Z,5.47
2022-12-23T13:04:57.775Z,1.40
2022-12-23T13:07:36.465Z,5.20
2022-12-23T13:10:12.603Z,3.05
2022-12-23T13:12:50.691Z,4.53
2022-12-23T13:15:26.032Z,10.88
2022-12-23T13:18:09.985Z,16.50
2022-12-23T13:20:46.654Z,6.13
2022-12-23T13:23:42.888Z,2.28
2022-12-23T13:26:21.475Z,3.78
2022-12-23T13:28:58.532Z,4.65
2022-12-23T13:31:43.939Z,6.63
2022-12-23T13:34:27.052Z,6.63
2022-12-23T13:37:06.155Z,3.38
2022-12-23T13:39:47.202Z,7.55
2022-12-23T13:42:30.337Z,3.38
2022-12-23T13:45:02.758Z,4.25
2022-12-23T13:47:47.980Z,3.97
2022-12-23T13:50:26.037Z,3.00
2022-12-23T13:53:12.704Z,3.45
2022-12-23T13:55:55.450Z,3.10
2022-12-23T13:58:27.003Z,4.13
2022-12-23T14:01:01.108Z,5.43
2022-12-23T14:03:36.655Z,3.72
2022-12-23T14:06:24.073Z,4.95
2022-12-23T14:08:55.283Z,3.85
2022-12-23T14:11:27.740Z,7.72
2022-12-23T14:14:01.751Z,6.05
2022-12-23T14:16:48.383Z,5.65
2022-12-23T14:19:44.146Z,5.78
2022-12-23T14:22:27.990Z,5.95
2022-12-23T14:25:22.683Z,6.75
2022-12-23T14:28:01.154Z,5.63
2022-12-23T14:30:36.437Z,4.10
2022-12-23T14:33:15.321Z,3.67
2022-12-23T14:35:58.942Z,5.50
2022-12-23T14:38:31.065Z,4.32
2022-12-23T14:41:26.344Z,1.83
2022-12-23T14:44:00.096Z,2.50
2022-12-23T14:46:59.948Z,3.22
2022-12-23T14:49:44.765Z,3.85
2022-12-23T14:52:49.496Z,5.57
2022-12-23T14:55:47.612Z,1.90
2022-12-23T14:58:44.463Z,1.90
2022-12-23T15:01:17.934Z,2.20
2022-12-23T15:03:52.177Z,3.10
2022-12-23T15:06:30.499Z,2.47
2022-12-23T15:08:59.986Z,3.20
2022-12-23T15:11:31.528Z,2.53
2022-12-23T15:14:03.153Z,2.38
2022-12-23T15:16:37.390Z,2.63
2022-12-23T15:19:19.427Z,2.03
2022-12-23T15:21:54.484Z,3.83
2022-12-23T15:24:29.942Z,3.05
2022-12-23T15:27:27.914Z,4.00
2022-12-23T15:29:52.512Z,2.03
2022-12-23T15:32:24.481Z,1.95
2022-12-23T15:34:56.299Z,4.20
2022-12-23T15:37:30.103Z,2.92
2022-12-23T15:40:09.542Z,3.20
2022-12-23T15:42:40.966Z,4.90
2022-12-23T15:45:35.598Z,2.83
2022-12-23T15:48:07.600Z,3.88
2022-12-23T15:50:41.866Z,3.20
2022-12-23T15:53:17.160Z,4.85
2022-12-23T15:55:46.303Z,6.20
2022-12-23T15:58:22.254Z,9.70
2022-12-23T16:00:55.652Z,6.15
2022-12-23T16:03:29.597Z,3.47
2022-12-23T16:06:12.440Z,5.05
2022-12-23T16:08:40.871Z,3.83
2022-12-23T16:11:16.655Z,3.58
2022-12-23T16:13:58.667Z,1.33
2022-12-23T16:16:39.398Z,3.38
2022-12-23T16:19:40.201Z,3.42
2022-12-23T16:22:19.656Z,3.10
2022-12-23T16:24:49.911Z,2.65
2022-12-23T16:27:20.807Z,2.53
2022-12-23T16:29:49.874Z,6.43
2022-12-23T16:32:19.862Z,4.53
2022-12-23T16:34:51.766Z,4.13
2022-12-23T16:37:21.437Z,3.85
2022-12-23T16:39:49.761Z,4.40
2022-12-23T16:42:19.967Z,2.60
2022-12-23T16:44:48.216Z,3.78
2022-12-23T16:47:18.661Z,3.25
2022-12-23T16:49:46.919Z,3.03
2022-12-23T16:52:15.429Z,2.42
2022-12-23T16:54:45.066Z,3.20
2022-12-23T16:57:14.504Z,2.70
2022-12-23T16:59:42.715Z,2.85
2022-12-23T17:02:20.544Z,3.42
2022-12-23T17:04:48.818Z,4.25
2022-12-23T17:07:17.044Z,3.25
2022-12-23T17:09:48.019Z,2.65
2022-12-23T17:12:17.252Z,3.30
2022-12-23T17:14:45.900Z,3.38
2022-12-23T17:17:16.255Z,3.00
2022-12-23T17:19:45.881Z,2.88
2022-12-23T17:22:16.536Z,5.68
2022-12-23T17:24:47.409Z,5.45
2022-12-23T17:27:20.788Z,4.40
2022-12-23T17:29:49.526Z,4.22
2022-12-23T17:32:19.724Z,6.40
2022-12-23T17:34:48.440Z,4.05
2022-12-23T17:37:19.956Z,4.60
2022-12-23T17:40:01.215Z,3.72
2022-12-23T17:42:29.684Z,5.45
2022-12-23T17:44:58.575Z,6.15
2022-12-23T17:47:27.851Z,8.75
2022-12-23T17:49:56.366Z,6.78
2022-12-23T17:52:25.945Z,7.32
2022-12-23T17:54:56.488Z,6.50
2022-12-23T17:57:27.129Z,7.18
2022-12-23T17:59:57.107Z,7.38
2022-12-23T18:02:32.648Z,7.95
2022-12-23T18:05:03.038Z,6.78
2022-12-23T18:07:33.138Z,5.03
2022-12-23T18:10:09.147Z,5.43
2022-12-23T18:12:41.471Z,5.32
2022-12-23T18:15:19.908Z,4.95
2022-12-23T18:17:49.077Z,3.47
2022-12-23T18:20:20.583Z,3.85
2022-12-23T18:22:54.422Z,3.72
2022-12-23T18:25:26.238Z,3.80
2022-12-23T18:27:56.669Z,3.95
2022-12-23T18:30:30.478Z,4.72
2022-12-23T18:33:00.290Z,3.95
2022-12-23T18:35:32.527Z,2.53
2022-12-23T18:38:03.692Z,2.10
2022-12-23T18:40:34.050Z,1.00
2022-12-23T18:43:03.131Z,1.10
2022-12-23T18:45:38.504Z,3.30
2022-12-23T18:48:10.298Z,1.25
2022-12-23T18:50:46.463Z,2.05
2022-12-23T18:53:24.962Z,2.42
2022-12-23T18:55:59.303Z,2.60
2022-12-23T18:58:29.242Z,4.63
2022-12-23T19:01:01.047Z,3.42
2022-12-23T19:03:35.363Z,7.18
2022-12-23T19:06:09.755Z,4.40
2022-12-23T19:08:44.956Z,6.63
2022-12-23T19:11:21.354Z,5.00
2022-12-23T19:13:54.285Z,3.00
2022-12-23T19:16:24.441Z,3.50
2022-12-23T19:18:55.945Z,2.97
2022-12-23T19:21:26.291Z,5.03
2022-12-23T19:23:58.023Z,4.88
2022-12-23T19:26:29.521Z,5.85
2022-12-23T19:29:01.549Z,3.00
2022-12-23T19:31:31.602Z,4.25
2022-12-23T19:34:02.448Z,7.85
2022-12-23T19:36:32.375Z,2.00
2022-12-23T19:39:03.883Z,3.17
2022-12-23T19:41:36.285Z,1.40
2022-12-23T19:44:07.398Z,1.67
2022-12-23T19:46:47.119Z,1.00
2022-12-23T19:49:20.278Z,0.93
2022-12-23T19:51:50.838Z,0.73
2022-12-23T19:54:21.607Z,0.87
2022-12-23T19:56:54.507Z,0.28
2022-12-23T19:59:26.392Z,0.65
2022-12-23T20:01:56.009Z,0.60
2022-12-23T20:04:27.594Z,2.10
2022-12-23T20:06:56.591Z,1.65
2022-12-23T20:09:26.649Z,1.50
2022-12-23T20:11:58.771Z,0.60
2022-12-23T20:14:34.154Z,1.95
2022-12-23T20:17:04.256Z,1.70
2022-12-23T20:19:33.269Z,0.90
2022-12-23T20:22:03.613Z,0.68
2022-12-23T20:24:33.592Z,0.82
2022-12-23T20:27:11.362Z,0.93
2022-12-23T20:29:42.897Z,0.55
2022-12-23T20:32:12.363Z,0.55
2022-12-23T20:34:42.631Z,0.32
2022-12-23T20:37:12.356Z,1.20
2022-12-23T20:39:40.964Z,0.70
2022-12-23T20:42:12.744Z,0.65
2022-12-23T20:44:41.560Z,0.77
2022-12-23T20:47:09.939Z,0.68
2022-12-23T20:49:40.145Z,1.15
2022-12-23T20:52:12.012Z,0.88
2022-12-23T20:54:40.717Z,0.57
2022-12-23T20:57:09.776Z,1.67
2022-12-23T20:59:40.414Z,0.70
2022-12-23T21:02:12.511Z,0.47
2022-12-23T21:04:42.761Z,0.35
2022-12-23T21:07:11.219Z,0.52
2022-12-23T21:09:42.329Z,0.60
2022-12-23T21:12:10.706Z,0.35
2022-12-23T21:14:40.472Z,0.50
2022-12-23T21:17:09.661Z,0.88
2022-12-23T21:19:38.680Z,0.40
2022-12-23T21:22:09.513Z,0.70
2022-12-23T21:24:38.642Z,0.17
2022-12-23T21:27:07.026Z,0.60
2022-12-23T21:29:36.683Z,0.28
2022-12-23T21:32:06.815Z,0.50
2022-12-23T21:34:35.822Z,1.10
2022-12-23T21:37:05.228Z,0.90
2022-12-23T21:39:35.262Z,0.73
2022-12-23T21:42:04.546Z,1.23
2022-12-23T21:44:32.863Z,0.55
2022-12-23T21:47:02.576Z,2.80
2022-12-23T21:49:33.570Z,1.15
2022-12-23T21:52:06.511Z,0.77
2022-12-23T21:54:35.149Z,0.88
2022-12-23T21:57:03.477Z,1.08
2022-12-23T21:59:35.439Z,1.13
2022-12-23T22:02:04.237Z,1.15
2022-12-23T22:04:34.987Z,0.75
2022-12-23T22:07:04.020Z,1.20
2022-12-23T22:09:34.681Z,1.25
2022-12-23T22:12:05.391Z,1.20
2022-12-23T22:14:34.085Z,0.50
2022-12-23T22:17:03.816Z,0.85
2022-12-23T22:19:35.080Z,1.65
2022-12-23T22:22:04.281Z,0.63
2022-12-23T22:24:33.266Z,0.75
2022-12-23T22:27:03.424Z,1.70
2022-12-23T22:29:31.991Z,1.60
2022-12-23T22:32:01.118Z,1.25
2022-12-23T22:34:29.791Z,0.75
2022-12-23T22:36:59.602Z,1.50
2022-12-23T22:39:28.654Z,1.38
2022-12-23T22:41:57.498Z,1.30
2022-12-23T22:44:25.720Z,1.20
2022-12-23T22:46:54.950Z,2.35
2022-12-23T22:49:23.912Z,1.20
2022-12-23T22:51:54.543Z,1.20
2022-12-23T22:54:25.470Z,1.13
2022-12-23T22:56:55.566Z,1.48
2022-12-23T22:59:26.800Z,0.55
2022-12-23T23:01:56.116Z,3.70
2022-12-23T23:04:24.869Z,1.25
2022-12-23T23:06:54.936Z,2.42
2022-12-23T23:09:24.788Z,1.52
2022-12-23T23:11:54.129Z,1.67
2022-12-23T23:14:23.179Z,1.15
2022-12-23T23:16:52.238Z,0.95
2022-12-23T23:19:21.728Z,1.40
2022-12-23T23:21:50.102Z,0.70
2022-12-23T23:24:19.132Z,3.15
2022-12-23T23:26:49.070Z,0.80
2022-12-23T23:29:17.657Z,1.45
2022-12-23T23:31:46.563Z,1.00
2022-12-23T23:34:15.405Z,2.28
2022-12-23T23:36:44.957Z,0.77
2022-12-23T23:39:14.299Z,0.40
2022-12-23T23:41:42.652Z,0.85
2022-12-23T23:44:13.352Z,0.60
2022-12-23T23:46:41.903Z,0.80
2022-12-23T23:49:10.240Z,1.63
2022-12-23T23:51:40.016Z,1.20
2022-12-23T23:54:09.712Z,1.20
2022-12-23T23:56:39.512Z,0.57
2022-12-23T23:59:08.899Z,1.40
